createdAt,value
2018-05-15T00:02:17.776Z,13.40
2018-05-15T00:04:45.843Z,13.40
2018-05-15T00:07:13.714Z,13.40
2018-05-15T00:09:42.004Z,13.30
2018-05-15T00:12:10.277Z,13.30
2018-05-15T00:14:38.743Z,13.10
2018-05-15T00:17:06.918Z,13.10
2018-05-15T00:19:35.224Z,13.10
2018-05-15T00:22:04.497Z,13.10
2018-05-15T00:24:32.366Z,13.00
2018-05-15T00:27:00.600Z,13.10
2018-05-15T00:29:28.713Z,13.10
2018-05-15T00:31:56.881Z,13.10
2018-05-15T00:34:25.344Z,13.00
2018-05-15T00:36:53.433Z,13.00
2018-05-15T00:39:21.497Z,13.00
2018-05-15T00:41:49.879Z,13.00
2018-05-15T00:44:18.281Z,13.00
2018-05-15T00:46:46.704Z,12.90
2018-05-15T00:49:15.021Z,12.80
2018-05-15T00:51:43.179Z,12.70
2018-05-15T00:54:11.565Z,12.70
2018-05-15T00:56:39.941Z,12.70
2018-05-15T00:59:08.220Z,12.60
2018-05-15T01:01:36.505Z,12.60
2018-05-15T01:04:05.459Z,12.70
2018-05-15T01:06:34.240Z,12.60
2018-05-15T01:09:02.445Z,12.60
2018-05-15T01:11:30.692Z,12.50
2018-05-15T01:13:59.611Z,12.50
2018-05-15T01:16:27.481Z,12.50
2018-05-15T01:18:55.544Z,12.40
2018-05-15T01:21:23.928Z,12.50
2018-05-15T01:23:52.517Z,12.30
2018-05-15T01:26:20.587Z,12.40
2018-05-15T01:28:49.480Z,12.30
2018-05-15T01:31:17.763Z,12.20
2018-05-15T01:33:45.928Z,12.10
2018-05-15T01:36:14.099Z,12.00
2018-05-15T01:38:42.176Z,11.90
2018-05-15T01:41:10.341Z,11.90
2018-05-15T01:43:38.595Z,11.90
2018-05-15T01:46:07.178Z,11.90
2018-05-15T01:48:35.391Z,11.90
2018-05-15T01:51:03.873Z,11.90
2018-05-15T01:53:32.234Z,12.00
2018-05-15T01:56:00.469Z,12.00
2018-05-15T01:58:28.375Z,11.90
2018-05-15T02:00:56.851Z,11.90
2018-05-15T02:03:25.006Z,11.90
2018-05-15T02:05:53.813Z,12.00
2018-05-15T02:08:22.166Z,12.00
2018-05-15T02:10:50.060Z,12.00
2018-05-15T02:13:18.422Z,12.00
2018-05-15T02:15:46.738Z,12.00
2018-05-15T02:18:15.705Z,12.00
2018-05-15T02:20:43.878Z,12.00
2018-05-15T02:23:11.907Z,12.00
2018-05-15T02:25:40.341Z,12.10
2018-05-15T02:28:08.737Z,12.10
2018-05-15T02:30:37.714Z,12.30
2018-05-15T02:33:06.695Z,12.30
2018-05-15T02:35:34.828Z,12.30
2018-05-15T02:38:03.036Z,12.30
2018-05-15T02:40:31.215Z,12.40
2018-05-15T02:42:59.461Z,12.50
2018-05-15T02:45:27.633Z,12.70
2018-05-15T02:47:56.165Z,12.60
2018-05-15T02:50:25.340Z,12.80
2018-05-15T02:52:53.717Z,12.80
2018-05-15T02:55:21.580Z,12.80
2018-05-15T02:57:49.449Z,12.70
2018-05-15T03:00:17.622Z,12.70
2018-05-15T03:02:46.387Z,12.70
2018-05-15T03:05:15.406Z,12.90
2018-05-15T03:07:43.780Z,12.90
2018-05-15T03:10:11.967Z,13.00
2018-05-15T03:12:40.134Z,13.10
2018-05-15T03:15:08.606Z,13.20
2018-05-15T03:17:36.782Z,12.90
2018-05-15T03:20:04.850Z,12.90
2018-05-15T03:22:32.998Z,13.00
2018-05-15T03:25:01.250Z,13.10
2018-05-15T03:27:29.299Z,13.20
2018-05-15T03:29:58.468Z,13.30
2018-05-15T03:32:26.749Z,13.30
2018-05-15T03:34:55.117Z,13.40
2018-05-15T03:37:23.479Z,13.20
2018-05-15T03:39:51.678Z,13.30
2018-05-15T03:42:19.961Z,13.40
2018-05-15T03:44:48.122Z,13.40
2018-05-15T03:47:16.299Z,13.40
2018-05-15T03:49:44.157Z,13.30
2018-05-15T03:52:12.711Z,13.30
2018-05-15T03:54:41.237Z,13.50
2018-05-15T03:57:09.501Z,13.50
2018-05-15T03:59:38.576Z,13.60
2018-05-15T04:05:22.676Z,13.80
2018-05-15T04:08:02.631Z,13.60
2018-05-15T04:10:31.925Z,13.90
2018-05-15T04:13:00.562Z,13.80
2018-05-15T04:15:29.172Z,13.90
2018-05-15T04:17:57.732Z,13.90
2018-05-15T04:20:25.834Z,14.00
2018-05-15T04:22:54.117Z,14.10
2018-05-15T04:25:22.281Z,14.20
2018-05-15T04:27:50.572Z,14.30
2018-05-15T04:30:18.736Z,14.30
2018-05-15T04:32:48.131Z,14.20
2018-05-15T04:35:16.511Z,14.20
2018-05-15T04:37:45.102Z,14.20
2018-05-15T04:40:14.521Z,14.20
2018-05-15T04:42:43.653Z,14.40
2018-05-15T04:45:11.900Z,14.40
2018-05-15T04:47:41.180Z,14.50
2018-05-15T04:50:11.062Z,14.50
2018-05-15T04:52:39.644Z,14.60
2018-05-15T04:55:07.867Z,14.50
2018-05-15T04:57:37.057Z,14.60
2018-05-15T05:00:05.562Z,14.50
2018-05-15T05:02:33.925Z,14.50
2018-05-15T05:05:03.412Z,14.40
2018-05-15T05:07:31.592Z,14.40
2018-05-15T05:10:00.797Z,14.40
2018-05-15T05:12:29.806Z,14.80
2018-05-15T05:14:58.879Z,14.80
2018-05-15T05:17:27.903Z,14.90
2018-05-15T05:19:56.955Z,14.90
2018-05-15T05:22:25.454Z,15.00
2018-05-15T05:24:54.713Z,15.00
2018-05-15T05:27:23.228Z,15.00
2018-05-15T05:29:53.125Z,15.30
2018-05-15T05:32:22.436Z,15.50
2018-05-15T05:34:50.799Z,15.50
2018-05-15T05:37:21.059Z,15.60
2018-05-15T05:39:49.513Z,16.00
2018-05-15T05:42:18.014Z,16.20
2018-05-15T05:44:46.759Z,16.30
2018-05-15T05:47:15.265Z,16.50
2018-05-15T05:49:44.555Z,16.60
2018-05-15T05:52:12.933Z,16.60
2018-05-15T05:54:41.383Z,16.80
2018-05-15T05:57:09.810Z,17.00
2018-05-15T05:59:39.326Z,17.30
2018-05-15T06:02:08.880Z,17.50
2018-05-15T06:04:37.499Z,17.50
2018-05-15T06:07:07.264Z,17.60
2018-05-15T06:09:35.485Z,17.60
2018-05-15T06:12:05.766Z,17.80
2018-05-15T06:14:34.298Z,17.80
2018-05-15T06:17:03.684Z,18.10
2018-05-15T06:19:32.419Z,18.10
2018-05-15T06:22:00.821Z,18.50
2018-05-15T06:24:29.300Z,18.80
2018-05-15T06:26:57.546Z,19.00
2018-05-15T06:29:26.003Z,19.40
2018-05-15T06:31:56.049Z,20.00
2018-05-15T06:34:24.361Z,20.00
2018-05-15T06:36:52.746Z,20.30
2018-05-15T06:39:21.426Z,21.00
2018-05-15T06:41:49.594Z,21.60
2018-05-15T06:44:17.801Z,21.90
2018-05-15T06:46:47.754Z,20.80
2018-05-15T06:49:16.748Z,20.80
2018-05-15T06:51:45.088Z,20.60
2018-05-15T06:54:14.386Z,20.10
2018-05-15T06:56:43.571Z,20.10
2018-05-15T06:59:12.160Z,20.10
2018-05-15T07:01:41.099Z,20.00
2018-05-15T07:04:10.045Z,20.10
2018-05-15T07:06:39.389Z,22.40
2018-05-15T07:09:08.318Z,22.30
2018-05-15T07:11:36.291Z,23.10
2018-05-15T07:14:05.282Z,22.90
2018-05-15T07:16:33.796Z,23.30
2018-05-15T07:19:02.577Z,24.10
2018-05-15T07:21:31.889Z,26.00
2018-05-15T07:24:00.421Z,26.00
2018-05-15T07:26:29.020Z,26.60
2018-05-15T07:28:57.290Z,27.00
2018-05-15T07:31:25.894Z,27.30
2018-05-15T07:33:55.183Z,28.20
2018-05-15T07:36:26.454Z,28.20
2018-05-15T07:38:55.230Z,28.10
2018-05-15T07:41:24.060Z,28.80
2018-05-15T07:43:53.298Z,28.70
2018-05-15T07:46:22.369Z,28.90
2018-05-15T07:48:51.019Z,28.60
2018-05-15T07:51:19.479Z,28.80
2018-05-15T07:53:48.797Z,29.40
2018-05-15T07:56:17.281Z,29.40
2018-05-15T07:58:46.029Z,30.20
2018-05-15T08:01:14.509Z,30.30
2018-05-15T08:03:43.080Z,29.90
2018-05-15T08:06:11.563Z,29.50
2018-05-15T08:08:40.162Z,29.20
2018-05-15T08:11:08.427Z,29.50
2018-05-15T08:13:37.262Z,30.40
2018-05-15T08:16:05.992Z,30.80
2018-05-15T08:18:34.392Z,30.00
2018-05-15T08:21:03.178Z,31.00
2018-05-15T08:23:31.661Z,31.00
2018-05-15T08:26:00.436Z,32.10
2018-05-15T08:28:29.123Z,32.70
2018-05-15T08:30:59.217Z,32.50
2018-05-15T08:33:27.630Z,32.90
2018-05-15T08:35:56.723Z,34.30
2018-05-15T08:38:25.429Z,34.20
2018-05-15T08:40:54.393Z,32.60
2018-05-15T08:43:22.991Z,32.50
2018-05-15T08:45:52.213Z,32.60
2018-05-15T08:48:20.788Z,32.50
2018-05-15T08:50:50.324Z,31.60
2018-05-15T08:53:18.466Z,32.40
2018-05-15T08:55:48.566Z,31.50
2018-05-15T08:58:18.150Z,30.50
2018-05-15T09:00:46.647Z,30.40
2018-05-15T09:03:15.427Z,29.40
2018-05-15T09:05:44.125Z,29.20
2018-05-15T09:08:13.441Z,27.50
2018-05-15T09:10:42.843Z,27.30
2018-05-15T09:13:12.025Z,27.00
2018-05-15T09:15:41.336Z,26.00
2018-05-15T09:18:10.788Z,25.70
2018-05-15T09:20:39.408Z,25.70
2018-05-15T09:23:07.766Z,25.50
2018-05-15T09:25:36.479Z,25.60
2018-05-15T09:28:06.664Z,24.50
2018-05-15T09:30:34.942Z,24.40
2018-05-15T09:33:03.474Z,24.30
2018-05-15T09:35:32.969Z,24.10
2018-05-15T09:38:01.951Z,24.30
2018-05-15T09:40:31.249Z,25.80
2018-05-15T09:42:59.705Z,25.70
2018-05-15T09:45:28.424Z,28.20
2018-05-15T09:47:57.696Z,31.20
2018-05-15T09:50:26.090Z,31.20
2018-05-15T09:52:54.585Z,32.10
2018-05-15T09:55:23.854Z,35.10
2018-05-15T09:57:52.565Z,35.10
2018-05-15T10:00:27.814Z,36.10
2018-05-15T10:02:57.185Z,33.40
2018-05-15T10:05:25.770Z,33.30
2018-05-15T10:07:54.567Z,32.00
2018-05-15T10:10:24.703Z,31.50
2018-05-15T10:12:53.792Z,31.90
2018-05-15T10:15:22.959Z,33.20
2018-05-15T10:17:51.898Z,33.10
2018-05-15T10:20:21.672Z,33.30
2018-05-15T10:22:50.444Z,32.90
2018-05-15T10:25:18.855Z,32.00
2018-05-15T10:27:48.112Z,29.40
2018-05-15T10:30:16.935Z,29.40
2018-05-15T10:32:45.227Z,28.80
2018-05-15T10:35:14.817Z,26.80
2018-05-15T10:37:42.925Z,26.80
2018-05-15T10:40:11.553Z,26.60
2018-05-15T10:42:39.935Z,26.90
2018-05-15T10:45:08.549Z,27.70
2018-05-15T10:47:37.642Z,27.50
2018-05-15T10:50:07.445Z,28.10
2018-05-15T10:52:36.993Z,29.20
2018-05-15T10:55:05.622Z,29.20
2018-05-15T10:57:34.115Z,29.70
2018-05-15T11:00:02.398Z,31.20
2018-05-15T11:02:30.774Z,33.50
2018-05-15T11:05:00.155Z,35.00
2018-05-15T11:07:29.468Z,34.70
2018-05-15T11:09:57.863Z,34.60
2018-05-15T11:12:27.358Z,31.90
2018-05-15T11:14:56.353Z,30.90
2018-05-15T11:17:25.736Z,30.20
2018-05-15T11:20:06.321Z,29.60
2018-05-15T11:22:47.364Z,28.50
2018-05-15T11:25:15.778Z,28.40
2018-05-15T11:27:45.235Z,28.30
2018-05-15T11:30:14.010Z,28.30
2018-05-15T11:32:42.487Z,28.90
2018-05-15T11:35:10.798Z,28.80
2018-05-15T11:37:40.092Z,29.00
2018-05-15T11:40:08.485Z,28.40
2018-05-15T11:42:38.555Z,28.00
2018-05-15T11:45:06.578Z,28.00
2018-05-15T11:47:36.693Z,28.40
2018-05-15T11:50:06.637Z,29.60
2018-05-15T11:52:34.667Z,30.50
2018-05-15T11:55:03.070Z,29.90
2018-05-15T11:57:32.577Z,28.40
2018-05-15T12:00:02.146Z,27.90
2018-05-15T12:02:30.965Z,27.80
2018-05-15T12:04:59.438Z,28.20
2018-05-15T12:07:28.243Z,28.70
2018-05-15T12:09:57.515Z,27.60
2018-05-15T12:12:26.135Z,27.60
2018-05-15T12:14:55.448Z,26.30
2018-05-15T12:17:25.018Z,26.20
2018-05-15T12:19:53.804Z,25.90
2018-05-15T12:22:21.970Z,26.00
2018-05-15T12:24:50.767Z,25.80
2018-05-15T12:27:19.387Z,25.50
2018-05-15T12:29:47.917Z,25.20
2018-05-15T12:32:16.398Z,25.20
2018-05-15T12:34:45.392Z,24.80
2018-05-15T12:37:13.792Z,24.70
2018-05-15T12:39:42.567Z,24.50
2018-05-15T12:42:11.037Z,24.30
2018-05-15T12:44:40.146Z,23.60
2018-05-15T12:47:08.864Z,23.60
2018-05-15T12:49:37.841Z,23.60
2018-05-15T12:52:07.125Z,23.90
2018-05-15T12:54:35.507Z,23.90
2018-05-15T12:57:04.606Z,24.30
2018-05-15T12:59:34.012Z,24.40
2018-05-15T13:02:05.170Z,24.80
2018-05-15T13:04:34.432Z,24.90
2018-05-15T13:07:02.925Z,24.90
2018-05-15T13:09:31.296Z,25.00
2018-05-15T13:11:59.793Z,25.10
2018-05-15T13:14:30.357Z,25.00
2018-05-15T13:16:59.060Z,25.00
2018-05-15T13:19:27.681Z,25.00
2018-05-15T13:21:57.453Z,25.50
2018-05-15T13:24:26.216Z,25.50
2018-05-15T13:26:55.597Z,26.00
2018-05-15T13:29:25.324Z,29.10
2018-05-15T13:31:53.989Z,29.10
2018-05-15T13:34:23.439Z,32.00
2018-05-15T13:36:52.265Z,32.00
2018-05-15T13:39:20.975Z,32.00
2018-05-15T13:41:50.454Z,31.70
2018-05-15T13:44:20.185Z,31.70
2018-05-15T13:46:49.760Z,32.10
2018-05-15T13:49:18.160Z,32.10
2018-05-15T13:51:47.543Z,31.60
2018-05-15T13:54:16.642Z,30.80
2018-05-15T13:56:46.869Z,30.60
2018-05-15T13:59:16.049Z,31.10
2018-05-15T14:01:44.963Z,31.10
2018-05-15T14:04:13.334Z,30.90
2018-05-15T14:06:42.520Z,30.90
2018-05-15T14:09:11.307Z,30.90
2018-05-15T14:11:39.919Z,31.30
2018-05-15T14:14:09.601Z,31.10
2018-05-15T14:16:37.989Z,31.10
2018-05-15T14:19:06.410Z,31.40
2018-05-15T14:21:34.858Z,31.40
2018-05-15T14:24:03.772Z,31.60
2018-05-15T14:26:32.677Z,30.70
2018-05-15T14:29:01.126Z,29.90
2018-05-15T14:31:30.763Z,30.40
2018-05-15T14:33:59.285Z,30.40
2018-05-15T14:36:27.976Z,30.90
2018-05-15T14:38:56.279Z,30.70
2018-05-15T14:41:37.501Z,31.10
2018-05-15T14:44:06.849Z,30.90
2018-05-15T14:46:35.744Z,30.90
2018-05-15T14:49:05.028Z,30.30
2018-05-15T14:51:33.521Z,30.30
2018-05-15T14:54:08.057Z,30.40
2018-05-15T14:56:36.508Z,30.40
2018-05-15T14:59:04.614Z,30.90
2018-05-15T15:01:34.288Z,30.90
2018-05-15T15:04:02.687Z,30.90
2018-05-15T15:06:32.359Z,28.60
2018-05-15T15:09:01.570Z,28.60
2018-05-15T15:11:30.111Z,27.70
2018-05-15T15:13:58.751Z,27.20
2018-05-15T15:16:27.168Z,26.90
2018-05-15T15:18:57.791Z,26.20
2018-05-15T15:21:26.142Z,25.90
2018-05-15T15:23:55.575Z,24.40
2018-05-15T15:26:25.711Z,23.80
2018-05-15T15:28:54.959Z,23.80
2018-05-15T15:31:25.838Z,23.40
2018-05-15T15:33:54.782Z,23.30
2018-05-15T15:36:22.959Z,23.10
2018-05-15T15:38:52.687Z,22.60
2018-05-15T15:41:22.687Z,22.30
2018-05-15T15:43:52.000Z,22.20
2018-05-15T15:46:21.068Z,22.20
2018-05-15T15:48:50.191Z,22.20
2018-05-15T15:51:19.438Z,22.10
2018-05-15T15:53:47.550Z,22.10
2018-05-15T15:56:16.846Z,21.60
2018-05-15T15:58:45.412Z,21.60
2018-05-15T16:01:14.043Z,21.40
2018-05-15T16:03:42.750Z,21.30
2018-05-15T16:06:11.087Z,21.40
2018-05-15T16:08:40.198Z,21.50
2018-05-15T16:11:09.359Z,21.30
2018-05-15T16:13:38.048Z,21.30
2018-05-15T16:16:06.323Z,21.20
2018-05-15T16:18:34.935Z,21.20
2018-05-15T16:21:04.526Z,21.30
2018-05-15T16:23:32.958Z,21.30
2018-05-15T16:26:01.359Z,21.30
2018-05-15T16:28:30.412Z,21.00
2018-05-15T16:30:59.071Z,20.80
2018-05-15T16:33:28.463Z,20.90
2018-05-15T16:35:56.727Z,20.90
2018-05-15T16:38:25.311Z,20.80
2018-05-15T16:40:54.438Z,20.10
2018-05-15T16:43:24.124Z,19.40
2018-05-15T16:45:53.470Z,18.70
2018-05-15T16:48:23.787Z,18.00
2018-05-15T16:50:53.503Z,17.50
2018-05-15T16:53:23.256Z,17.40
2018-05-15T16:55:52.366Z,16.90
2018-05-15T16:58:21.160Z,16.90
2018-05-15T17:00:51.068Z,16.40
2018-05-15T17:03:20.199Z,16.20
2018-05-15T17:05:48.639Z,16.20
2018-05-15T17:08:17.155Z,16.10
2018-05-15T17:10:46.727Z,16.00
2018-05-15T17:13:16.364Z,16.00
2018-05-15T17:15:45.278Z,16.00
2018-05-15T17:18:13.582Z,16.10
2018-05-15T17:20:42.079Z,16.00
2018-05-15T17:23:10.766Z,15.60
2018-05-15T17:25:39.229Z,15.40
2018-05-15T17:28:07.646Z,15.30
2018-05-15T17:30:37.327Z,15.40
2018-05-15T17:33:07.227Z,15.40
2018-05-15T17:35:35.630Z,15.50
2018-05-15T17:38:04.206Z,15.40
2018-05-15T17:40:32.719Z,15.40
2018-05-15T17:43:01.087Z,15.40
2018-05-15T17:45:32.430Z,15.50
2018-05-15T17:48:02.143Z,15.50
2018-05-15T17:50:31.309Z,15.40
2018-05-15T17:52:59.730Z,15.40
2018-05-15T17:55:29.207Z,15.50
2018-05-15T17:57:57.846Z,15.50
2018-05-15T18:00:26.287Z,15.50
2018-05-15T18:02:55.773Z,15.50
2018-05-15T18:05:24.142Z,15.50
2018-05-15T18:07:52.479Z,15.60
2018-05-15T18:10:21.022Z,15.60
2018-05-15T18:12:53.487Z,15.60
2018-05-15T18:15:22.359Z,15.50
2018-05-15T18:17:50.750Z,15.50
2018-05-15T18:20:20.801Z,15.60
2018-05-15T18:22:49.405Z,15.70
2018-05-15T18:25:17.926Z,15.90
2018-05-15T18:27:47.071Z,16.00
2018-05-15T18:30:15.425Z,16.00
2018-05-15T18:32:44.814Z,15.90
2018-05-15T18:35:13.413Z,15.90
2018-05-15T18:37:43.326Z,16.20
2018-05-15T18:40:12.416Z,16.30
2018-05-15T18:42:40.801Z,16.20
2018-05-15T18:45:10.078Z,16.20
2018-05-15T18:47:39.503Z,16.20
2018-05-15T18:50:09.255Z,16.10
2018-05-15T18:52:39.118Z,16.10
2018-05-15T18:55:07.793Z,16.20
2018-05-15T18:57:36.494Z,16.30
2018-05-15T19:00:07.439Z,16.40
2018-05-15T19:02:35.806Z,16.40
2018-05-15T19:05:06.350Z,16.30
2018-05-15T19:07:34.728Z,16.30
2018-05-15T19:10:04.143Z,16.30
2018-05-15T19:12:33.088Z,16.20
2018-05-15T19:15:01.630Z,16.30
2018-05-15T19:17:31.726Z,16.20
2018-05-15T19:20:04.804Z,16.20
2018-05-15T19:22:33.367Z,16.10
2018-05-15T19:25:01.663Z,16.20
2018-05-15T19:27:31.071Z,16.20
2018-05-15T19:30:00.166Z,16.20
2018-05-15T19:32:35.183Z,16.20
2018-05-15T19:35:08.527Z,16.20
2018-05-15T19:40:16.271Z,16.20
2018-05-15T19:42:44.878Z,16.20
2018-05-15T19:45:14.641Z,15.80
2018-05-15T19:47:44.079Z,15.90
2018-05-15T19:50:14.463Z,15.90
2018-05-15T19:52:43.568Z,16.10
2018-05-15T19:55:11.895Z,16.10
2018-05-15T19:57:40.963Z,16.20
2018-05-15T20:00:11.047Z,16.20
2018-05-15T20:02:41.550Z,16.20
2018-05-15T20:05:10.879Z,16.00
2018-05-15T20:07:39.311Z,16.00
2018-05-15T20:10:08.687Z,16.10
2018-05-15T20:12:38.800Z,16.10
2018-05-15T20:15:08.450Z,15.90
2018-05-15T20:17:37.839Z,16.00
2018-05-15T20:20:10.799Z,16.00
2018-05-15T20:22:39.527Z,15.90
2018-05-15T20:25:08.799Z,15.70
2018-05-15T20:27:37.391Z,15.70
2018-05-15T20:30:06.591Z,15.30
2018-05-15T20:32:36.799Z,15.50
2018-05-15T20:35:06.397Z,15.50
2018-05-15T20:37:35.095Z,15.40
2018-05-15T20:40:03.280Z,15.30
2018-05-15T20:42:32.926Z,15.00
2018-05-15T20:45:01.487Z,15.00
2018-05-15T20:47:31.167Z,15.20
2018-05-15T20:49:59.711Z,15.10
2018-05-15T20:52:28.039Z,15.10
2018-05-15T20:54:56.398Z,15.10
2018-05-15T20:57:24.904Z,15.00
2018-05-15T20:59:53.807Z,14.90
2018-05-15T21:02:22.863Z,15.00
2018-05-15T21:04:51.172Z,15.00
2018-05-15T21:07:20.299Z,15.10
2018-05-15T21:09:49.045Z,15.00
2018-05-15T21:12:18.241Z,15.00
2018-05-15T21:14:47.702Z,15.00
2018-05-15T21:17:16.241Z,15.00
2018-05-15T21:19:47.271Z,15.00
2018-05-15T21:22:16.061Z,15.10
2018-05-15T21:24:45.430Z,15.20
2018-05-15T21:27:14.328Z,15.20
2018-05-15T21:29:42.810Z,15.10
2018-05-15T21:32:11.106Z,15.10
2018-05-15T21:34:41.124Z,15.10
2018-05-15T21:37:10.128Z,15.00
2018-05-15T21:39:39.263Z,15.10
2018-05-15T21:42:07.685Z,15.10
2018-05-15T21:44:35.856Z,15.10
2018-05-15T21:47:04.746Z,15.10
2018-05-15T21:49:32.793Z,15.10
2018-05-15T21:52:01.096Z,15.20
2018-05-15T21:54:29.563Z,15.20
2018-05-15T21:56:58.443Z,15.30
2018-05-15T21:59:27.043Z,15.30
2018-05-15T22:01:55.403Z,15.20
2018-05-15T22:04:24.007Z,15.10
2018-05-15T22:06:52.806Z,15.00
2018-05-15T22:09:22.539Z,14.90
2018-05-15T22:12:02.338Z,14.80
2018-05-15T22:14:42.294Z,14.80
2018-05-15T22:17:22.359Z,14.80
2018-05-15T22:20:02.180Z,14.90
2018-05-15T22:22:30.573Z,14.90
2018-05-15T22:25:00.691Z,14.90
2018-05-15T22:27:28.676Z,14.90
2018-05-15T22:29:58.774Z,14.90
2018-05-15T22:32:27.196Z,14.90
2018-05-15T22:34:55.665Z,14.90
2018-05-15T22:37:26.061Z,14.70
2018-05-15T22:39:54.956Z,14.70
2018-05-15T22:42:27.028Z,14.80
2018-05-15T22:44:56.182Z,14.80
2018-05-15T22:47:25.518Z,14.80
2018-05-15T22:49:53.678Z,14.90
2018-05-15T22:52:22.564Z,14.90
2018-05-15T22:54:50.964Z,15.00
2018-05-15T22:57:19.453Z,14.90
2018-05-15T22:59:49.339Z,14.80
2018-05-15T23:02:17.224Z,14.80
2018-05-15T23:04:45.585Z,14.80
2018-05-15T23:07:14.149Z,14.80
2018-05-15T23:09:42.135Z,14.80
2018-05-15T23:12:10.713Z,14.80
2018-05-15T23:14:39.017Z,14.80
2018-05-15T23:17:09.125Z,14.80
2018-05-15T23:19:37.374Z,14.80
2018-05-15T23:22:05.285Z,14.80
2018-05-15T23:24:34.471Z,14.90
2018-05-15T23:27:02.623Z,14.90
2018-05-15T23:29:30.786Z,14.80
2018-05-15T23:31:59.306Z,14.80
2018-05-15T23:34:28.395Z,14.80
2018-05-15T23:36:56.243Z,14.80
2018-05-15T23:39:24.108Z,14.80
2018-05-15T23:41:54.940Z,14.90
2018-05-15T23:44:24.108Z,15.00
2018-05-15T23:46:52.203Z,15.10
2018-05-15T23:49:20.683Z,15.00
2018-05-15T23:51:48.970Z,15.00
2018-05-15T23:54:17.657Z,15.00
2018-05-15T23:56:46.021Z,15.00
2018-05-15T23:59:14.218Z,15.00
